Time;durP1;ratioP1;P1;durP2;ratioP2;P2;SDS_P1;SDS_P2;PMS_P1;PMS_P2;Temp;Humidity;BMP_temperature;BMP_pressure;BME280_temperature;BME280_humidity;BME280_pressure;Samples;Min_cycle;Max_cycle;Signal;HPM_P1;HPM_P2
2022/08/03 00:00:07;;;;;;;4.03;1.38;;;23.40;62.60;;;;;;4510384;31;20153;-68
2022/08/03 00:02:33;;;;;;;4.45;1.30;;;23.40;62.60;;;;;;4510600;31;20485;-68
2022/08/03 00:04:59;;;;;;;3.67;1.20;;;23.40;62.60;;;;;;4496066;31;20593;-68
2022/08/03 00:07:25;;;;;;;3.10;1.10;;;23.40;62.60;;;;;;4510333;31;20077;-68
2022/08/03 00:09:51;;;;;;;3.03;1.38;;;23.40;62.60;;;;;;4510001;31;20533;-68
2022/08/03 00:12:16;;;;;;;2.80;1.10;;;23.40;62.60;;;;;;4495979;31;20402;-68
2022/08/03 00:14:42;;;;;;;2.67;1.10;;;23.30;62.50;;;;;;4510174;31;20206;-68
2022/08/03 00:17:08;;;;;;;5.32;1.42;;;23.40;62.60;;;;;;4510155;31;20490;-68
2022/08/03 00:19:34;;;;;;;2.30;1.20;;;23.30;62.60;;;;;;4509868;31;20084;-68
2022/08/03 00:22:00;;;;;;;3.63;1.35;;;23.30;62.50;;;;;;4509813;31;20069;-68
2022/08/03 00:24:25;;;;;;;3.95;0.90;;;23.30;62.60;;;;;;4510019;31;20131;-68
2022/08/03 00:26:51;;;;;;;3.25;1.08;;;23.30;62.50;;;;;;4510294;31;20273;-68
2022/08/03 00:29:17;;;;;;;2.30;0.88;;;23.30;62.60;;;;;;4509842;31;20178;-68
2022/08/03 00:31:43;;;;;;;2.55;1.05;;;23.30;62.50;;;;;;4509943;31;20226;-68
2022/08/03 00:34:09;;;;;;;1.65;0.90;;;23.30;62.50;;;;;;4509895;31;20076;-68
2022/08/03 00:36:34;;;;;;;1.45;0.82;;;23.30;62.50;;;;;;4510219;31;20085;-68
2022/08/03 00:39:00;;;;;;;2.38;1.05;;;23.30;62.50;;;;;;4509626;31;20091;-68
2022/08/03 00:41:26;;;;;;;2.42;1.10;;;23.30;62.50;;;;;;4509491;31;20253;-68
2022/08/03 00:43:52;;;;;;;2.88;1.10;;;23.30;62.50;;;;;;4509693;31;20490;-68
2022/08/03 00:46:19;;;;;;;3.47;1.00;;;23.30;62.50;;;;;;4509789;31;20210;-68
2022/08/03 00:48:44;;;;;;;1.63;1.08;;;23.30;62.50;;;;;;4508923;31;20140;-68
2022/08/03 00:51:11;;;;;;;2.65;1.10;;;23.30;62.50;;;;;;4509870;31;20120;-68
2022/08/03 00:53:37;;;;;;;2.00;1.17;;;23.30;62.60;;;;;;4509562;31;20262;-68
2022/08/03 00:56:03;;;;;;;1.73;1.00;;;23.30;62.50;;;;;;4509562;31;20521;-68
2022/08/03 00:58:29;;;;;;;3.78;1.10;;;23.30;62.50;;;;;;4509552;31;20081;-68
2022/08/03 01:00:55;;;;;;;2.75;0.90;;;23.30;62.50;;;;;;4509446;31;20420;-68
2022/08/03 01:03:21;;;;;;;2.97;0.88;;;23.30;62.50;;;;;;4509508;31;20202;-68
2022/08/03 01:06:06;;;;;;;1.75;0.70;;;23.30;62.50;;;;;;4509471;31;20061;-68
2022/08/03 01:08:38;;;;;;;1.85;1.00;;;23.30;62.40;;;;;;4509454;31;20615;-68
2022/08/03 01:11:16;;;;;;;2.80;0.98;;;23.30;62.40;;;;;;4509340;31;20065;-68
2022/08/03 01:14:12;;;;;;;3.15;1.10;;;23.30;62.50;;;;;;4509720;31;20084;-68
2022/08/03 01:16:49;;;;;;;4.03;1.10;;;23.30;62.40;;;;;;4477885;31;20073;-68
2022/08/03 01:19:40;;;;;;;2.25;0.90;;;23.30;62.50;;;;;;4509407;31;20072;-68
2022/08/03 01:22:26;;;;;;;1.95;0.90;;;23.30;62.40;;;;;;4509318;31;20206;-68
2022/08/03 01:25:16;;;;;;;1.85;0.80;;;23.30;62.40;;;;;;4509038;31;20123;-72
2022/08/03 01:27:45;;;;;;;2.28;1.08;;;23.30;62.50;;;;;;4509490;31;20233;-68
2022/08/03 01:30:11;;;;;;;1.50;0.90;;;23.30;62.50;;;;;;4509080;31;20091;-68
2022/08/03 01:32:52;;;;;;;2.03;0.93;;;23.30;62.50;;;;;;4508814;31;20437;-68
2022/08/03 01:35:33;;;;;;;1.88;0.80;;;23.30;62.50;;;;;;4509132;31;20072;-68
2022/08/03 01:38:08;;;;;;;2.65;1.00;;;23.30;62.40;;;;;;4508803;31;20526;-68
2022/08/03 01:40:38;;;;;;;1.77;0.90;;;23.20;62.40;;;;;;4508997;31;20092;-68
2022/08/03 01:43:06;;;;;;;2.35;0.88;;;23.30;62.40;;;;;;4508957;31;20162;-68
2022/08/03 01:45:33;;;;;;;2.33;0.80;;;23.30;62.50;;;;;;4508845;31;20096;-68
2022/08/03 01:48:00;;;;;;;1.98;0.90;;;23.20;62.40;;;;;;4508573;31;20061;-68
2022/08/03 01:50:28;;;;;;;4.05;0.90;;;23.20;62.40;;;;;;4508505;31;20092;-68
2022/08/03 01:52:56;;;;;;;2.03;0.70;;;23.20;62.40;;;;;;4508728;31;20427;-68
2022/08/03 01:55:27;;;;;;;1.73;0.90;;;23.20;62.40;;;;;;4508865;31;20091;-68
2022/08/03 01:57:54;;;;;;;3.35;1.30;;;23.20;62.40;;;;;;4508954;31;20089;-68
2022/08/03 02:00:21;;;;;;;3.28;1.20;;;23.20;62.40;;;;;;4508425;31;20199;-68
2022/08/03 02:02:49;;;;;;;2.63;1.15;;;23.20;62.40;;;;;;4508549;31;20079;-68
2022/08/03 02:05:16;;;;;;;1.05;0.70;;;23.20;62.40;;;;;;4508576;31;20080;-68
2022/08/03 02:07:45;;;;;;;1.23;0.70;;;23.20;62.30;;;;;;4508540;31;20545;-68
2022/08/03 02:10:12;;;;;;;1.95;0.93;;;23.20;62.40;;;;;;4508524;31;20418;-68
2022/08/03 02:12:41;;;;;;;1.45;0.75;;;23.20;62.40;;;;;;4508470;31;20087;-68
2022/08/03 02:15:09;;;;;;;2.00;0.95;;;23.20;62.40;;;;;;4508700;31;20097;-68
2022/08/03 02:17:36;;;;;;;3.00;0.90;;;23.20;62.50;;;;;;4508630;31;20077;-68
2022/08/03 02:20:04;;;;;;;3.47;0.98;;;23.20;62.40;;;;;;4508499;31;20084;-68
2022/08/03 02:22:32;;;;;;;1.58;0.52;;;23.20;62.40;;;;;;4508058;31;20088;-68
2022/08/03 02:24:58;;;;;;;2.03;0.63;;;23.20;62.40;;;;;;4508464;31;20088;-68
2022/08/03 02:27:28;;;;;;;1.40;0.75;;;23.20;62.40;;;;;;4508466;31;20073;-68
2022/08/03 02:30:07;;;;;;;1.00;0.60;;;23.20;62.40;;;;;;4507908;31;20426;-68
2022/08/03 02:32:40;;;;;;;1.55;0.73;;;23.20;62.40;;;;;;4508276;31;20084;-68
2022/08/03 02:35:10;;;;;;;1.98;0.80;;;23.20;62.40;;;;;;4508889;31;20079;-68
2022/08/03 02:37:47;;;;;;;2.55;0.85;;;23.20;62.30;;;;;;4508388;31;20069;-68
2022/08/03 02:40:15;;;;;;;3.33;0.88;;;23.10;62.40;;;;;;4508309;31;20420;-68
2022/08/03 02:42:44;;;;;;;1.88;0.70;;;23.20;62.40;;;;;;4507699;31;20065;-68
2022/08/03 02:45:12;;;;;;;0.90;0.70;;;23.20;62.40;;;;;;4507783;31;20540;-68
2022/08/03 02:47:40;;;;;;;1.27;0.70;;;23.20;62.50;;;;;;4507983;31;20081;-68
2022/08/03 02:50:09;;;;;;;1.98;0.75;;;23.20;62.40;;;;;;4493454;31;20153;-68
2022/08/03 02:52:37;;;;;;;3.00;1.00;;;23.10;62.40;;;;;;4507953;31;20076;-68
2022/08/03 02:55:05;;;;;;;2.72;0.80;;;23.20;62.50;;;;;;4507982;31;20085;-68
2022/08/03 02:57:34;;;;;;;1.88;0.70;;;23.20;62.50;;;;;;4507920;31;20076;-68
2022/08/03 03:00:01;;;;;;;1.67;0.60;;;23.20;62.50;;;;;;4507557;31;20152;-68
2022/08/03 03:02:28;;;;;;;2.08;0.90;;;23.10;62.40;;;;;;4507896;31;20081;-68
2022/08/03 03:04:55;;;;;;;2.10;0.90;;;23.20;62.50;;;;;;4508093;31;20076;-68
2022/08/03 03:07:21;;;;;;;1.48;0.77;;;23.10;62.40;;;;;;4508126;31;20091;-68
2022/08/03 03:09:48;;;;;;;3.15;0.80;;;23.10;62.40;;;;;;4507376;31;20072;-68
2022/08/03 03:12:16;;;;;;;1.13;0.70;;;23.10;62.30;;;;;;4507545;31;20065;-68
2022/08/03 03:14:42;;;;;;;1.52;0.90;;;23.20;62.40;;;;;;4507542;31;20113;-68
2022/08/03 03:17:10;;;;;;;1.50;0.65;;;23.20;62.50;;;;;;4507989;31;20069;-68
2022/08/03 03:19:37;;;;;;;2.45;0.90;;;23.10;62.40;;;;;;4508054;31;20173;-68
2022/08/03 03:22:06;;;;;;;2.67;0.93;;;23.10;62.40;;;;;;4507916;31;20085;-69
2022/08/03 03:24:34;;;;;;;1.95;0.80;;;23.10;62.40;;;;;;4507561;31;20117;-68
2022/08/03 03:27:01;;;;;;;2.97;1.05;;;23.10;62.50;;;;;;4493377;31;20138;-68
2022/08/03 03:29:28;;;;;;;1.98;0.70;;;23.10;62.40;;;;;;4507886;31;20081;-68
2022/08/03 03:31:54;;;;;;;1.92;0.80;;;23.10;62.40;;;;;;4507886;31;20211;-68
2022/08/03 03:34:20;;;;;;;2.08;0.52;;;23.10;62.40;;;;;;4507373;31;20077;-68
2022/08/03 03:36:46;;;;;;;1.60;0.63;;;23.10;62.40;;;;;;4507346;31;20092;-68
2022/08/03 03:39:12;;;;;;;3.05;0.50;;;23.10;62.40;;;;;;4507760;31;20119;-68
2022/08/03 03:41:39;;;;;;;2.05;0.80;;;23.10;62.40;;;;;;4507061;31;20095;-68
2022/08/03 03:44:05;;;;;;;2.67;0.80;;;23.10;62.40;;;;;;4507550;31;20211;-68
2022/08/03 03:46:31;;;;;;;1.25;0.63;;;23.10;62.30;;;;;;4507571;31;20157;-68
2022/08/03 03:48:57;;;;;;;1.98;0.75;;;23.10;62.40;;;;;;4507280;31;20219;-68
2022/08/03 03:51:23;;;;;;;2.97;0.85;;;23.10;62.30;;;;;;4507573;31;20079;-68
2022/08/03 03:53:56;;;;;;;3.10;0.80;;;23.10;62.40;;;;;;4507651;31;20107;-68
2022/08/03 03:56:23;;;;;;;2.33;0.70;;;23.10;62.30;;;;;;4507188;31;20127;-68
2022/08/03 03:58:49;;;;;;;0.88;0.50;;;23.10;62.40;;;;;;4507429;31;20502;-68
2022/08/03 04:01:16;;;;;;;1.42;0.80;;;23.10;62.40;;;;;;4507080;31;20080;-68
2022/08/03 04:03:42;;;;;;;1.77;0.65;;;23.10;62.40;;;;;;4507726;31;20254;-68
2022/08/03 04:11:50;;;;;;;1.77;0.70;;;23.10;62.40;;;;;;4507653;31;20153;-68
2022/08/03 04:14:36;;;;;;;1.45;0.70;;;23.10;62.30;;;;;;4507557;31;20142;-68
2022/08/03 04:17:07;;;;;;;3.40;0.95;;;23.10;62.30;;;;;;4507661;31;20189;-68
2022/08/03 04:19:40;;;;;;;2.80;0.63;;;23.10;62.50;;;;;;4507637;31;20084;-70
2022/08/03 04:22:10;;;;;;;2.90;1.17;;;23.10;62.40;;;;;;4507341;31;20100;-68
2022/08/03 04:24:52;;;;;;;1.20;0.70;;;23.10;62.40;;;;;;4509688;31;20081;-68
2022/08/03 04:27:24;;;;;;;1.63;0.82;;;23.10;62.40;;;;;;4510433;31;20089;-68
2022/08/03 04:29:53;;;;;;;1.13;0.52;;;23.10;62.40;;;;;;4510186;31;20077;-68
2022/08/03 04:32:22;;;;;;;1.48;0.60;;;23.10;62.40;;;;;;4510295;31;20069;-68
2022/08/03 04:34:48;;;;;;;0.70;0.60;;;23.10;62.40;;;;;;4510019;31;20069;-68
2022/08/03 04:37:23;;;;;;;2.50;0.90;;;23.00;62.30;;;;;;4509915;31;20083;-68
2022/08/03 04:39:49;;;;;;;0.95;0.50;;;23.10;62.40;;;;;;4510179;31;20080;-68
2022/08/03 04:42:18;;;;;;;1.27;0.75;;;23.10;62.40;;;;;;4509358;31;20104;-67
2022/08/03 04:44:45;;;;;;;1.58;0.80;;;23.10;62.40;;;;;;4509879;31;20129;-68
2022/08/03 04:47:11;;;;;;;1.40;0.60;;;23.10;62.40;;;;;;4509770;31;20089;-68
2022/08/03 04:49:37;;;;;;;1.13;0.47;;;23.10;62.40;;;;;;4509701;31;20222;-68
2022/08/03 04:52:04;;;;;;;2.42;0.80;;;23.10;62.40;;;;;;4509706;31;20099;-68
2022/08/03 04:54:38;;;;;;;1.05;0.70;;;23.10;62.40;;;;;;4509281;31;20077;-69
2022/08/03 04:57:04;;;;;;;2.42;0.65;;;23.10;62.40;;;;;;4509740;31;20112;-68
2022/08/03 04:59:30;;;;;;;2.53;0.65;;;23.10;62.40;;;;;;4509355;31;20219;-69
2022/08/03 05:01:56;;;;;;;1.30;0.50;;;23.10;62.50;;;;;;4509555;31;20084;-68
2022/08/03 05:04:21;;;;;;;1.15;0.60;;;23.10;62.40;;;;;;4509844;31;20515;-68
2022/08/03 05:06:47;;;;;;;2.08;0.80;;;23.10;62.40;;;;;;4509187;31;20069;-68
2022/08/03 05:09:13;;;;;;;0.77;0.60;;;23.00;62.40;;;;;;4509446;31;20075;-69
2022/08/03 05:11:39;;;;;;;2.25;0.77;;;23.10;62.40;;;;;;4495013;31;20186;-68
2022/08/03 05:14:05;;;;;;;2.00;0.60;;;23.10;62.50;;;;;;4509065;31;20084;-68
2022/08/03 05:16:30;;;;;;;2.17;0.70;;;23.10;62.40;;;;;;4509088;31;20080;-68
2022/08/03 05:18:56;;;;;;;2.05;0.80;;;23.10;62.50;;;;;;4509286;31;20536;-69
2022/08/03 05:21:22;;;;;;;1.38;0.60;;;23.10;62.50;;;;;;4508967;31;20210;-68
2022/08/03 05:23:48;;;;;;;1.92;0.63;;;23.10;62.40;;;;;;4509130;31;20068;-68
2022/08/03 05:26:14;;;;;;;2.20;0.55;;;23.10;62.40;;;;;;4509006;31;20069;-69
2022/08/03 05:28:39;;;;;;;1.15;0.60;;;23.10;62.40;;;;;;4509425;31;20159;-68
2022/08/03 05:31:05;;;;;;;1.80;0.70;;;23.10;63.30;;;;;;4494606;31;20087;-68
2022/08/03 05:33:31;;;;;;;1.92;0.70;;;23.10;62.40;;;;;;4508706;31;20375;-68
2022/08/03 05:35:58;;;;;;;2.30;0.70;;;23.10;62.40;;;;;;4508790;31;20091;-68
2022/08/03 05:38:25;;;;;;;1.92;0.70;;;23.10;62.40;;;;;;4508741;31;20525;-68
2022/08/03 05:40:50;;;;;;;2.97;0.80;;;23.10;62.40;;;;;;4509096;31;20100;-68
2022/08/03 05:43:16;;;;;;;2.28;0.65;;;23.10;62.40;;;;;;4508936;31;20363;-68
2022/08/03 05:45:42;;;;;;;3.95;0.82;;;23.10;62.50;;;;;;4509004;31;20441;-68
2022/08/03 05:48:08;;;;;;;1.35;0.40;;;23.10;62.40;;;;;;4494256;31;20153;-68
2022/08/03 05:50:35;;;;;;;1.27;0.70;;;23.10;62.50;;;;;;4508820;31;20083;-68
2022/08/03 05:53:01;;;;;;;2.78;0.77;;;23.10;62.40;;;;;;4508985;31;20080;-68
2022/08/03 05:55:27;;;;;;;1.75;0.88;;;23.10;62.50;;;;;;4508417;31;20077;-68
2022/08/03 05:57:53;;;;;;;1.75;0.63;;;23.10;62.40;;;;;;4508678;31;20221;-68
2022/08/03 06:00:19;;;;;;;2.53;0.90;;;23.10;62.40;;;;;;4508925;31;20226;-68
2022/08/03 06:02:45;;;;;;;2.42;0.77;;;23.10;62.40;;;;;;4508693;31;20398;-68
2022/08/03 06:05:11;;;;;;;2.22;0.82;;;23.10;62.40;;;;;;4508841;31;20083;-68
2022/08/03 06:07:37;;;;;;;1.77;0.50;;;23.20;62.40;;;;;;4508510;31;20084;-68
2022/08/03 06:10:04;;;;;;;1.67;0.43;;;23.20;62.50;;;;;;4508460;31;20550;-68
2022/08/03 06:12:30;;;;;;;1.13;0.68;;;23.20;62.50;;;;;;4508532;31;20636;-68
2022/08/03 06:14:56;;;;;;;1.70;0.77;;;23.20;62.50;;;;;;4508458;31;20069;-68
2022/08/03 06:17:22;;;;;;;1.90;0.88;;;23.20;62.60;;;;;;4508421;31;20088;-68
2022/08/03 06:19:50;;;;;;;1.95;0.75;;;23.20;62.70;;;;;;4508383;31;20103;-68
2022/08/03 06:22:16;;;;;;;2.55;0.65;;;23.20;62.70;;;;;;4508583;31;20309;-68
2022/08/03 06:24:43;;;;;;;1.88;0.60;;;23.20;62.60;;;;;;4507955;31;20126;-68
2022/08/03 06:27:08;;;;;;;1.08;0.50;;;23.30;62.70;;;;;;4508278;31;20077;-70
2022/08/03 06:29:34;;;;;;;2.58;0.80;;;23.30;62.70;;;;;;4508090;31;20109;-68
2022/08/03 06:32:00;;;;;;;1.90;0.82;;;23.30;62.80;;;;;;4508218;31;20087;-68
2022/08/03 06:34:26;;;;;;;2.25;0.68;;;23.30;62.70;;;;;;4508414;31;20502;-68
2022/08/03 06:36:53;;;;;;;3.05;0.70;;;23.30;62.70;;;;;;4508151;31;20120;-68
2022/08/03 06:39:20;;;;;;;2.10;0.60;;;23.30;62.60;;;;;;4508109;31;20080;-68
2022/08/03 06:41:46;;;;;;;1.40;0.70;;;23.30;62.60;;;;;;4507808;31;20491;-68
2022/08/03 06:44:12;;;;;;;2.28;0.57;;;23.40;62.70;;;;;;4508091;31;20600;-68
2022/08/03 06:46:38;;;;;;;1.40;0.80;;;23.40;62.70;;;;;;4507434;31;20077;-68
2022/08/03 06:49:05;;;;;;;6.68;1.10;;;23.30;62.60;;;;;;4508265;31;20487;-69
2022/08/03 06:51:31;;;;;;;5.18;1.30;;;23.40;62.90;;;;;;4507704;31;20072;-69
2022/08/03 06:53:57;;;;;;;9.57;1.55;;;23.40;63.90;;;;;;4507783;31;20075;-69
2022/08/03 06:56:23;;;;;;;9.02;2.20;;;23.50;64.70;;;;;;4507851;31;20072;-68
2022/08/03 06:58:50;;;;;;;10.52;1.95;;;23.60;65.70;;;;;;4508161;31;20174;-69
2022/08/03 07:01:16;;;;;;;11.05;1.98;;;23.60;65.80;;;;;;4507810;31;20204;-69
2022/08/03 07:03:41;;;;;;;11.38;2.67;;;23.70;66.00;;;;;;4493309;31;20219;-69
2022/08/03 07:06:07;;;;;;;11.05;1.90;;;23.80;66.20;;;;;;4508078;31;20084;-69
2022/08/03 07:08:33;;;;;;;13.05;2.83;;;23.80;66.40;;;;;;4508025;31;20084;-69
2022/08/03 07:10:59;;;;;;;12.77;2.63;;;23.80;66.90;;;;;;4507476;31;20098;-69
2022/08/03 07:13:25;;;;;;;8.25;1.90;;;23.90;67.10;;;;;;4507790;31;20093;-68
2022/08/03 07:15:51;;;;;;;13.15;2.28;;;23.90;67.00;;;;;;4507435;31;20073;-69
2022/08/03 07:18:17;;;;;;;10.88;2.10;;;23.90;67.10;;;;;;4493543;31;20085;-69
2022/08/03 07:20:43;;;;;;;11.02;2.15;;;24.00;67.30;;;;;;4507856;31;20510;-69
2022/08/03 07:23:09;;;;;;;9.93;2.40;;;24.00;67.10;;;;;;4507677;31;20158;-68
2022/08/03 07:25:35;;;;;;;9.90;2.40;;;24.00;67.30;;;;;;4507820;31;20077;-69
2022/08/03 07:28:01;;;;;;;8.18;2.17;;;24.00;67.50;;;;;;4507591;31;20486;-69
2022/08/03 07:30:26;;;;;;;9.82;2.15;;;24.00;67.70;;;;;;4493327;31;20112;-69
2022/08/03 07:32:52;;;;;;;10.38;2.17;;;24.10;67.90;;;;;;4507581;31;20097;-69
2022/08/03 07:35:18;;;;;;;14.52;2.17;;;24.10;67.90;;;;;;4507578;31;20092;-69
2022/08/03 07:37:44;;;;;;;10.35;2.17;;;24.10;67.90;;;;;;4507941;31;20177;-69
2022/08/03 07:40:10;;;;;;;9.98;2.20;;;24.10;67.80;;;;;;4507473;31;20652;-69
2022/08/03 07:42:36;;;;;;;13.52;2.42;;;24.20;67.90;;;;;;4507068;31;20069;-69
2022/08/03 07:45:03;;;;;;;10.13;2.22;;;24.20;67.80;;;;;;4507484;31;20080;-69
2022/08/03 07:47:30;;;;;;;11.13;2.30;;;24.20;67.90;;;;;;4507267;31;20157;-68
2022/08/03 07:49:56;;;;;;;8.23;1.95;;;24.20;67.80;;;;;;4507554;31;20088;-68
2022/08/03 07:55:07;;;;;;;6.40;2.00;;;24.20;67.20;;;;;;4507449;31;20154;-68
2022/08/03 07:57:34;;;;;;;9.00;2.03;;;24.20;67.00;;;;;;4508822;31;20238;-69
2022/08/03 08:00:01;;;;;;;10.43;2.13;;;24.20;66.80;;;;;;4510567;31;20084;-69
2022/08/03 08:02:27;;;;;;;6.35;1.65;;;24.20;66.70;;;;;;4510439;31;20286;-69
2022/08/03 08:04:53;;;;;;;8.77;2.15;;;24.20;66.60;;;;;;4496082;31;20120;-68
2022/08/03 08:07:19;;;;;;;9.80;2.10;;;24.20;66.50;;;;;;4510340;31;20093;-68
2022/08/03 08:09:45;;;;;;;6.15;1.80;;;24.20;66.50;;;;;;4510270;31;20079;-69
2022/08/03 08:12:11;;;;;;;9.50;2.08;;;24.20;66.40;;;;;;4496016;31;20068;-68
2022/08/03 08:14:37;;;;;;;8.52;1.70;;;24.20;66.50;;;;;;4509939;31;20076;-68
2022/08/03 08:17:03;;;;;;;11.82;1.90;;;24.20;66.40;;;;;;4510503;31;20109;-69
2022/08/03 08:19:29;;;;;;;6.72;1.73;;;24.20;66.40;;;;;;4510189;31;20193;-69
2022/08/03 08:21:55;;;;;;;8.38;1.85;;;24.20;66.40;;;;;;4510057;31;20084;-69
2022/08/03 08:24:21;;;;;;;9.88;1.77;;;24.20;66.40;;;;;;4510077;31;20104;-68
2022/08/03 08:26:47;;;;;;;9.40;2.20;;;24.20;66.40;;;;;;4509957;31;20057;-68
2022/08/03 08:29:12;;;;;;;7.43;2.03;;;24.20;66.40;;;;;;4509672;31;20178;-67
2022/08/03 08:31:38;;;;;;;11.27;2.33;;;24.20;66.30;;;;;;4509937;31;20073;-69
2022/08/03 08:34:06;;;;;;;9.30;1.88;;;24.20;66.40;;;;;;4509710;31;20065;-68
2022/08/03 08:36:33;;;;;;;8.23;2.10;;;24.20;66.40;;;;;;4509649;31;20073;-68
2022/08/03 08:38:59;;;;;;;8.05;1.83;;;24.20;66.40;;;;;;4509821;31;20199;-68
2022/08/03 08:41:26;;;;;;;8.75;2.15;;;24.20;66.40;;;;;;4509495;31;20230;-68
2022/08/03 08:43:53;;;;;;;7.50;1.90;;;24.20;66.40;;;;;;4495266;31;20093;-68
2022/08/03 08:46:19;;;;;;;6.63;2.00;;;24.20;66.30;;;;;;4509480;31;20092;-68
2022/08/03 08:48:47;;;;;;;8.10;1.90;;;24.20;66.40;;;;;;4509459;31;20164;-68
2022/08/03 08:51:13;;;;;;;7.60;1.95;;;24.20;66.30;;;;;;4509669;31;20508;-68
2022/08/03 08:53:43;;;;;;;7.60;2.25;;;24.20;66.40;;;;;;4509797;31;20072;-73
2022/08/03 08:56:14;;;;;;;7.97;2.33;;;24.20;66.30;;;;;;4509935;31;20085;-68
2022/08/03 08:58:46;;;;;;;9.27;1.95;;;24.20;66.30;;;;;;4509918;31;20091;-68
2022/08/03 09:01:13;;;;;;;3.78;1.65;;;24.20;66.40;;;;;;4509612;31;20118;-68
2022/08/03 09:03:38;;;;;;;7.72;2.10;;;24.20;66.40;;;;;;4509503;31;20072;-68
2022/08/03 09:06:05;;;;;;;7.90;2.47;;;24.30;66.40;;;;;;4509436;31;20073;-68
2022/08/03 09:08:32;;;;;;;9.60;2.00;;;24.30;66.40;;;;;;4508782;31;20068;-68
2022/08/03 09:10:58;;;;;;;4.90;1.75;;;24.30;66.40;;;;;;4509228;31;20065;-68
2022/08/03 09:13:25;;;;;;;7.38;2.00;;;24.30;66.60;;;;;;4509144;31;20077;-68
2022/08/03 09:16:16;;;;;;;10.73;2.30;;;24.30;66.50;;;;;;4509066;31;20100;-68
2022/08/03 09:18:45;;;;;;;9.30;2.30;;;24.30;66.50;;;;;;4509421;31;20479;-68
2022/08/03 09:21:13;;;;;;;10.45;2.42;;;24.30;66.60;;;;;;4508892;31;20073;-68
2022/08/03 09:23:50;;;;;;;9.00;2.42;;;24.30;66.60;;;;;;4509365;31;20143;-68
2022/08/03 09:26:23;;;;;;;7.05;2.10;;;24.30;66.70;;;;;;4509125;31;20510;-69
2022/08/03 09:29:10;;;;;;;9.15;2.50;;;24.40;66.80;;;;;;4509290;31;20073;-68
2022/08/03 09:31:41;;;;;;;12.45;2.80;;;24.40;66.90;;;;;;4509248;31;20488;-68
2022/08/03 09:34:09;;;;;;;7.95;2.35;;;24.40;66.90;;;;;;4508769;31;20162;-68
2022/08/03 09:36:38;;;;;;;7.20;2.40;;;24.40;66.90;;;;;;4508980;31;20089;-68
2022/08/03 09:39:18;;;;;;;13.73;2.78;;;24.40;66.90;;;;;;4508809;31;20664;-68
2022/08/03 09:41:47;;;;;;;8.98;2.30;;;24.40;67.00;;;;;;4509058;31;20425;-68
2022/08/03 09:44:14;;;;;;;10.05;2.78;;;24.40;67.00;;;;;;4508856;31;20608;-68
2022/08/03 09:46:55;;;;;;;11.48;2.95;;;24.40;66.90;;;;;;4509392;31;20072;-68
2022/08/03 09:49:22;;;;;;;11.57;2.55;;;24.40;67.00;;;;;;4508802;31;20379;-68
2022/08/03 09:51:48;;;;;;;10.38;2.70;;;24.40;66.90;;;;;;4508778;31;20084;-68
2022/08/03 09:54:31;;;;;;;12.23;2.88;;;24.40;67.00;;;;;;4508629;31;20165;-69
2022/08/03 09:56:57;;;;;;;10.50;2.55;;;24.40;67.10;;;;;;4508544;31;20060;-70
2022/08/03 09:59:25;;;;;;;13.10;2.88;;;24.40;67.00;;;;;;4508867;31;20120;-68
2022/08/03 10:01:52;;;;;;;10.15;2.60;;;24.40;67.00;;;;;;4508553;31;20434;-69
2022/08/03 10:04:19;;;;;;;10.40;2.53;;;24.40;67.10;;;;;;4508799;31;20095;-69
2022/08/03 10:07:00;;;;;;;12.32;2.50;;;24.40;67.10;;;;;;4508331;31;20080;-68
2022/08/03 10:09:26;;;;;;;8.18;2.35;;;24.40;67.10;;;;;;4493959;31;20083;-68
2022/08/03 10:11:52;;;;;;;8.35;2.70;;;24.40;67.10;;;;;;4508402;31;20073;-68
2022/08/03 10:14:18;;;;;;;7.50;2.50;;;24.40;67.00;;;;;;4508151;31;20073;-68
2022/08/03 10:16:45;;;;;;;7.15;2.63;;;24.40;67.00;;;;;;4508424;31;20506;-66
2022/08/03 10:19:13;;;;;;;8.95;2.50;;;24.40;67.00;;;;;;4508333;31;20069;-67
2022/08/03 10:21:41;;;;;;;10.73;2.50;;;24.40;67.10;;;;;;4508233;31;20064;-68
2022/08/03 10:24:09;;;;;;;8.95;2.40;;;24.50;67.20;;;;;;4508395;31;20076;-67
2022/08/03 10:26:38;;;;;;;7.97;2.65;;;24.50;67.10;;;;;;4508426;31;20157;-68
2022/08/03 10:29:11;;;;;;;12.48;2.85;;;24.50;67.20;;;;;;4508226;31;20576;-67
2022/08/03 10:31:43;;;;;;;9.33;2.73;;;24.50;67.20;;;;;;4508357;31;20119;-68
2022/08/03 10:34:18;;;;;;;10.20;2.57;;;24.50;67.20;;;;;;4508236;31;20387;-68
2022/08/03 10:36:46;;;;;;;7.75;2.80;;;24.50;67.20;;;;;;4508229;31;20116;-67
2022/08/03 10:39:12;;;;;;;10.13;2.92;;;24.50;67.20;;;;;;4508093;31;20139;-68
2022/08/03 10:41:41;;;;;;;7.90;2.95;;;24.50;67.20;;;;;;4507675;31;20077;-68
2022/08/03 10:44:09;;;;;;;9.93;3.17;;;24.50;67.30;;;;;;4508083;31;20521;-68
2022/08/03 10:46:38;;;;;;;10.13;3.35;;;24.50;67.30;;;;;;4508239;31;20192;-67
2022/08/03 10:49:05;;;;;;;12.40;3.17;;;24.50;67.40;;;;;;4507988;31;20524;-68
2022/08/03 10:51:32;;;;;;;9.77;3.25;;;24.50;67.40;;;;;;4508245;31;20072;-68
2022/08/03 10:53:59;;;;;;;7.97;3.03;;;24.50;67.30;;;;;;4508104;31;20153;-68
2022/08/03 10:59:34;;;;;;;11.68;3.70;;;24.60;67.50;;;;;;4508213;31;20093;-68
2022/08/03 11:02:00;;;;;;;11.38;3.20;;;24.50;67.40;;;;;;4508208;31;20092;-68
2022/08/03 11:04:28;;;;;;;8.60;3.25;;;24.60;67.40;;;;;;4507613;31;20146;-67
2022/08/03 11:07:21;;;;;;;11.80;3.25;;;24.60;67.50;;;;;;4507764;31;20262;-67
2022/08/03 11:09:49;;;;;;;10.88;3.65;;;24.60;67.40;;;;;;4508062;31;20161;-67
2022/08/03 11:12:34;;;;;;;15.60;3.55;;;24.60;67.40;;;;;;4507453;31;20414;-68
2022/08/03 11:15:04;;;;;;;11.32;3.42;;;24.60;67.60;;;;;;4508122;31;20222;-68
2022/08/03 11:17:32;;;;;;;11.02;3.50;;;24.60;67.60;;;;;;4507569;31;20214;-68
2022/08/03 11:19:58;;;;;;;14.82;3.55;;;24.60;67.60;;;;;;4507673;31;20084;-68
2022/08/03 11:22:27;;;;;;;9.65;3.38;;;24.60;67.60;;;;;;4507797;31;20077;-68
2022/08/03 11:24:53;;;;;;;10.55;3.00;;;24.60;67.60;;;;;;4507449;31;20081;-68
2022/08/03 11:27:21;;;;;;;9.88;3.92;;;24.60;67.60;;;;;;4507555;31;20077;-68
2022/08/03 11:30:06;;;;;;;12.10;3.65;;;24.70;67.70;;;;;;4507907;31;20088;-67
2022/08/03 11:32:42;;;;;;;16.05;4.25;;;24.70;68.00;;;;;;4509709;31;20086;-68
2022/08/03 11:35:21;;;;;;;14.95;3.50;;;24.70;67.80;;;;;;4496451;31;20134;-67
2022/08/03 11:37:53;;;;;;;13.93;4.13;;;24.70;67.80;;;;;;4510869;31;20076;-67
2022/08/03 11:40:45;;;;;;;13.65;3.78;;;24.70;67.90;;;;;;4510809;31;20068;-67
2022/08/03 11:43:29;;;;;;;14.35;4.03;;;24.70;67.90;;;;;;4510654;31;20073;-70
2022/08/03 11:46:06;;;;;;;13.48;4.35;;;24.70;67.90;;;;;;4510895;31;20203;-67
2022/08/03 11:48:43;;;;;;;12.07;4.45;;;24.70;67.90;;;;;;4510722;31;20231;-67
2022/08/03 11:51:25;;;;;;;14.70;4.28;;;24.70;67.80;;;;;;4510374;31;20061;-67
2022/08/03 11:54:02;;;;;;;10.00;3.88;;;24.70;67.70;;;;;;4510619;31;20418;-67
2022/08/03 11:56:42;;;;;;;13.10;4.13;;;24.70;67.70;;;;;;4510560;31;20076;-67
2022/08/03 11:59:08;;;;;;;10.93;4.13;;;24.70;67.70;;;;;;4510580;31;20406;-67
2022/08/03 12:01:34;;;;;;;10.48;4.20;;;24.70;67.70;;;;;;4510047;31;20159;-67
2022/08/03 12:04:04;;;;;;;15.07;4.60;;;24.70;67.70;;;;;;4510393;31;20085;-66
2022/08/03 12:06:52;;;;;;;12.30;4.03;;;24.70;67.70;;;;;;4510350;31;20088;-67
2022/08/03 12:09:16;;;;;;;18.65;4.70;;;24.70;67.70;;;;;;4509962;31;20164;-67
2022/08/03 12:11:42;;;;;;;12.25;5.00;;;24.70;67.70;;;;;;4510088;31;20595;-67
2022/08/03 12:14:15;;;;;;;12.35;4.47;;;24.70;67.70;;;;;;4510569;31;20389;-67
2022/08/03 12:16:47;;;;;;;14.02;5.07;;;24.70;67.70;;;;;;4510304;31;20452;-66
2022/08/03 12:19:13;;;;;;;12.40;4.50;;;24.80;67.70;;;;;;4510590;31;20521;-66
2022/08/03 12:21:49;;;;;;;11.93;4.70;;;24.70;67.70;;;;;;4510069;31;20093;-67
2022/08/03 12:24:15;;;;;;;15.38;4.80;;;24.70;67.60;;;;;;4509732;31;20510;-67
2022/08/03 12:26:49;;;;;;;15.77;4.80;;;24.70;67.60;;;;;;4510035;31;20073;-67
2022/08/03 12:29:21;;;;;;;16.40;4.90;;;24.70;67.60;;;;;;4509922;31;20092;-67
2022/08/03 12:31:47;;;;;;;14.60;4.60;;;24.80;67.70;;;;;;4510008;31;20076;-65
2022/08/03 12:34:14;;;;;;;13.77;4.68;;;24.80;67.70;;;;;;4509994;31;20139;-67
2022/08/03 12:36:51;;;;;;;12.52;4.43;;;24.80;67.60;;;;;;4509981;31;20104;-67
2022/08/03 12:39:21;;;;;;;17.63;5.18;;;24.80;67.60;;;;;;4509727;31;20065;-67
2022/08/03 12:41:52;;;;;;;14.27;4.78;;;24.80;67.60;;;;;;4509551;31;20084;-67
2022/08/03 12:44:28;;;;;;;11.20;4.47;;;24.80;67.60;;;;;;4508872;31;20068;-66
2022/08/03 12:46:57;;;;;;;12.23;4.40;;;24.80;67.70;;;;;;4509888;31;20072;-67
2022/08/03 12:49:23;;;;;;;12.18;4.40;;;24.80;67.60;;;;;;4509702;31;20193;-67
2022/08/03 12:51:50;;;;;;;17.42;4.72;;;24.80;67.60;;;;;;4509740;31;20089;-67
2022/08/03 12:54:20;;;;;;;17.80;4.97;;;24.80;67.60;;;;;;4509834;31;20069;-67
2022/08/03 12:57:01;;;;;;;19.42;4.72;;;24.80;67.60;;;;;;4509480;31;20141;-67
2022/08/03 12:59:31;;;;;;;13.73;4.78;;;24.90;67.60;;;;;;4509740;31;20206;-69
2022/08/03 13:01:58;;;;;;;12.82;4.78;;;24.80;67.60;;;;;;4509513;31;20081;-67